createdAt,value
2018-06-11T00:02:52.708Z,99.99
2018-06-11T00:07:48.467Z,99.99
2018-06-11T00:12:43.778Z,99.99
2018-06-11T00:17:40.795Z,99.99
2018-06-11T00:22:37.079Z,99.99
2018-06-11T00:27:32.535Z,99.99
2018-06-11T00:32:29.372Z,99.99
2018-06-11T00:37:24.859Z,99.99
2018-06-11T00:42:20.736Z,99.99
2018-06-11T00:47:17.836Z,99.99
2018-06-11T00:52:13.326Z,99.99
2018-06-11T00:57:09.243Z,99.99
2018-06-11T01:02:05.110Z,99.99
2018-06-11T01:07:02.195Z,99.99
2018-06-11T01:11:57.697Z,99.99
2018-06-11T01:16:54.230Z,99.99
2018-06-11T01:21:50.831Z,99.99
2018-06-11T01:26:46.307Z,99.99
2018-06-11T01:31:42.024Z,99.99
2018-06-11T01:36:38.030Z,99.99
2018-06-11T01:41:35.039Z,99.99
2018-06-11T01:46:30.311Z,99.99
2018-06-11T01:51:26.279Z,99.99
2018-06-11T01:56:23.058Z,99.99
2018-06-11T02:01:19.589Z,99.99
2018-06-11T02:06:15.082Z,99.99
2018-06-11T02:11:10.973Z,99.99
2018-06-11T02:16:07.971Z,99.99
2018-06-11T02:21:04.440Z,99.99
2018-06-11T02:26:00.203Z,99.99
2018-06-11T02:30:57.282Z,99.99
2018-06-11T02:35:52.889Z,99.99
2018-06-11T02:40:49.714Z,99.99
2018-06-11T02:45:46.686Z,99.99
2018-06-11T02:50:42.312Z,99.99
2018-06-11T02:55:38.083Z,99.99
2018-06-11T03:00:35.394Z,99.99
2018-06-11T03:05:31.000Z,99.99
2018-06-11T03:10:26.846Z,99.99
2018-06-11T03:15:22.904Z,99.99
2018-06-11T03:20:18.557Z,99.99
2018-06-11T03:25:14.782Z,99.99
2018-06-11T03:30:11.577Z,99.99
2018-06-11T03:35:07.149Z,99.99
2018-06-11T03:40:04.159Z,99.99
2018-06-11T03:45:01.197Z,99.99
2018-06-11T03:49:56.768Z,99.99
2018-06-11T03:54:52.868Z,99.99
2018-06-11T03:59:49.742Z,99.99
2018-06-11T04:04:45.234Z,99.99
2018-06-11T04:09:41.541Z,99.99
2018-06-11T04:14:37.850Z,99.99
2018-06-11T04:19:33.931Z,99.99
2018-06-11T04:24:30.817Z,99.99
2018-06-11T04:29:27.563Z,99.99
2018-06-11T04:34:23.288Z,99.99
2018-06-11T04:39:19.542Z,99.99
2018-06-11T04:44:15.388Z,99.99
2018-06-11T04:49:11.526Z,99.99
2018-06-11T04:54:07.207Z,99.99
2018-06-11T04:59:03.022Z,99.99
2018-06-11T05:03:58.659Z,99.99
2018-06-11T05:08:54.530Z,99.99
2018-06-11T05:13:51.691Z,99.99
2018-06-11T05:18:47.543Z,99.99
2018-06-11T05:23:44.500Z,99.99
2018-06-11T05:28:40.282Z,99.99
2018-06-11T05:33:36.542Z,99.99
2018-06-11T05:38:32.412Z,99.99
2018-06-11T05:43:28.127Z,99.99
2018-06-11T05:48:24.147Z,99.99
2018-06-11T05:53:20.337Z,99.99
2018-06-11T05:58:17.267Z,99.99
2018-06-11T06:03:13.686Z,99.99
2018-06-11T06:08:10.892Z,99.99
2018-06-11T06:13:06.301Z,99.99
2018-06-11T06:18:02.204Z,99.99
2018-06-11T06:22:59.285Z,99.99
2018-06-11T06:27:54.992Z,99.99
2018-06-11T06:32:50.648Z,99.99
2018-06-11T06:37:48.215Z,99.99
2018-06-11T06:42:44.622Z,99.99
2018-06-11T06:47:40.490Z,99.99
2018-06-11T06:52:36.524Z,99.99
2018-06-11T06:57:32.304Z,99.99
2018-06-11T07:02:28.990Z,99.99
2018-06-11T07:07:25.363Z,99.99
2018-06-11T07:12:21.367Z,99.99
2018-06-11T07:17:17.448Z,99.99
2018-06-11T07:22:13.507Z,99.99
2018-06-11T07:27:11.059Z,99.99
2018-06-11T07:32:06.860Z,99.99
2018-06-11T07:37:02.832Z,99.99
2018-06-11T07:42:00.228Z,99.99
2018-06-11T07:46:56.608Z,99.99
2018-06-11T07:51:55.196Z,97.76
2018-06-11T07:56:52.627Z,93.82
2018-06-11T08:01:49.862Z,86.30
2018-06-11T08:06:48.055Z,87.22
2018-06-11T08:11:45.884Z,81.22
2018-06-11T08:16:43.717Z,75.27
2018-06-11T08:21:39.336Z,82.41
2018-06-11T08:26:35.454Z,80.12
2018-06-11T08:31:31.843Z,81.04
2018-06-11T08:36:28.977Z,81.29
2018-06-11T08:41:24.249Z,82.70
2018-06-11T08:46:19.901Z,84.19
2018-06-11T08:51:15.988Z,81.33
2018-06-11T08:56:13.046Z,77.05
2018-06-11T09:01:10.311Z,74.51
2018-06-11T09:06:07.190Z,79.02
2018-06-11T09:11:03.025Z,77.00
2018-06-11T09:16:00.188Z,74.60
2018-06-11T09:20:56.179Z,74.31
2018-06-11T09:25:53.352Z,74.95
2018-06-11T09:30:50.648Z,72.28
2018-06-11T09:35:46.115Z,73.15
2018-06-11T09:40:41.885Z,74.97
2018-06-11T09:45:37.360Z,76.03
2018-06-11T09:50:31.478Z,76.07
2018-06-11T09:55:27.085Z,74.68
2018-06-11T10:00:22.903Z,76.71
2018-06-11T10:05:19.359Z,77.48
2018-06-11T10:10:16.681Z,76.13
2018-06-11T10:15:12.975Z,74.66
2018-06-11T10:20:09.546Z,73.99
2018-06-11T10:25:05.472Z,74.08
2018-06-11T10:30:01.615Z,72.09
2018-06-11T10:34:59.478Z,69.36
2018-06-11T10:39:56.749Z,69.87
2018-06-11T10:44:53.701Z,70.74
2018-06-11T10:49:49.527Z,71.96
2018-06-11T10:54:44.734Z,72.15
2018-06-11T10:59:40.482Z,71.36
2018-06-11T11:04:37.044Z,67.91
2018-06-11T11:09:35.829Z,66.75
2018-06-11T11:14:32.082Z,67.59
2018-06-11T11:19:29.714Z,64.37
2018-06-11T11:24:26.047Z,66.20
2018-06-11T11:29:21.817Z,67.20
2018-06-11T11:34:19.186Z,65.01
2018-06-11T11:39:15.621Z,63.21
2018-06-11T11:44:12.061Z,63.82
2018-06-11T11:49:08.086Z,61.92
2018-06-11T11:54:05.715Z,60.11
2018-06-11T11:59:01.917Z,60.98
2018-06-11T12:03:58.251Z,63.50
2018-06-11T12:08:53.875Z,62.21
2018-06-11T12:13:49.926Z,61.33
2018-06-11T12:18:46.497Z,62.98
2018-06-11T12:23:42.377Z,63.76
2018-06-11T12:28:38.750Z,62.07
2018-06-11T12:33:34.734Z,63.85
2018-06-11T12:38:31.750Z,62.43
2018-06-11T12:43:28.271Z,60.75
2018-06-11T12:48:24.446Z,58.94
2018-06-11T12:53:20.208Z,59.23
2018-06-11T12:58:15.685Z,59.46
2018-06-11T13:03:12.774Z,58.07
2018-06-11T13:08:08.064Z,60.62
2018-06-11T13:13:03.966Z,55.81
2018-06-11T13:17:59.811Z,55.90
2018-06-11T13:22:55.745Z,61.18
2018-06-11T13:27:52.941Z,59.52
2018-06-11T13:32:48.371Z,61.95
2018-06-11T13:37:45.257Z,61.08
2018-06-11T13:42:41.453Z,64.56
2018-06-11T13:47:36.488Z,65.30
2018-06-11T13:52:31.919Z,67.11
2018-06-11T13:57:28.647Z,68.26
2018-06-11T14:02:24.089Z,67.20
2018-06-11T14:07:18.713Z,66.97
2018-06-11T14:12:14.579Z,69.87
2018-06-11T14:17:11.454Z,68.46
2018-06-11T14:22:08.131Z,69.49
2018-06-11T14:27:04.661Z,69.87
2018-06-11T14:32:01.394Z,67.88
2018-06-11T14:36:57.336Z,69.04
2018-06-11T14:41:54.411Z,67.49
2018-06-11T14:46:50.218Z,67.62
2018-06-11T14:51:47.458Z,67.04
2018-06-11T14:56:44.120Z,66.63
2018-06-11T15:01:40.853Z,67.78
2018-06-11T15:06:36.559Z,68.07
2018-06-11T15:11:33.655Z,66.82
2018-06-11T15:16:30.457Z,66.46
2018-06-11T15:26:29.870Z,65.69
2018-06-11T15:31:26.799Z,65.98
2018-06-11T15:36:22.472Z,66.85
2018-06-11T15:41:18.557Z,67.14
2018-06-11T15:46:16.044Z,67.24
2018-06-11T15:51:12.663Z,66.85
2018-06-11T15:56:09.213Z,68.81
2018-06-11T16:01:05.639Z,69.62
2018-06-11T16:06:01.298Z,69.81
2018-06-11T16:10:58.582Z,69.87
2018-06-11T16:15:54.253Z,68.71
2018-06-11T16:20:49.910Z,69.32
2018-06-11T16:25:47.347Z,69.62
2018-06-11T16:30:47.228Z,67.49
2018-06-11T16:35:46.520Z,68.23
2018-06-11T16:40:41.908Z,68.13
2018-06-11T16:45:37.751Z,69.39
2018-06-11T16:50:33.655Z,69.39
2018-06-11T16:55:30.533Z,70.16
2018-06-11T17:00:26.847Z,70.26
2018-06-11T17:05:23.346Z,69.68
2018-06-11T17:10:19.144Z,70.13
2018-06-11T17:15:14.878Z,70.03
2018-06-11T17:20:10.753Z,70.80
2018-06-11T17:25:06.495Z,71.38
2018-06-11T17:30:02.261Z,71.25
2018-06-11T17:34:58.114Z,71.54
2018-06-11T17:39:53.978Z,71.44
2018-06-11T17:44:49.862Z,71.25
2018-06-11T17:49:45.705Z,71.34
2018-06-11T17:54:42.675Z,70.86
2018-06-11T17:59:38.465Z,71.25
2018-06-11T18:04:35.385Z,70.67
2018-06-11T18:09:32.318Z,71.50
2018-06-11T18:14:27.687Z,71.79
2018-06-11T18:19:23.931Z,73.05
2018-06-11T18:24:24.907Z,74.78
2018-06-11T18:29:24.650Z,75.36
2018-06-11T18:34:19.433Z,76.51
2018-06-11T18:39:15.376Z,78.02
2018-06-11T18:44:11.665Z,78.11
2018-06-11T18:49:07.653Z,78.88
2018-06-11T18:54:03.484Z,79.23
2018-06-11T18:58:59.152Z,79.85
2018-06-11T19:03:55.100Z,79.81
2018-06-11T19:08:52.064Z,80.96
2018-06-11T19:13:48.614Z,81.06
2018-06-11T19:18:44.261Z,81.93
2018-06-11T19:23:42.323Z,81.30
2018-06-11T19:28:43.180Z,81.30
2018-06-11T19:33:38.941Z,81.60
2018-06-11T19:38:38.636Z,82.75
2018-06-11T19:43:33.468Z,83.23
2018-06-11T19:48:30.310Z,83.91
2018-06-11T19:53:26.197Z,83.91
2018-06-11T19:58:22.043Z,85.06
2018-06-11T20:03:19.331Z,84.97
2018-06-11T20:08:14.881Z,85.64
2018-06-11T20:13:10.484Z,86.22
2018-06-11T20:18:07.466Z,87.18
2018-06-11T20:23:02.942Z,86.18
2018-06-11T20:27:59.897Z,87.52
2018-06-11T20:32:56.673Z,89.15
2018-06-11T20:37:53.310Z,90.41
2018-06-11T20:42:48.710Z,92.29
2018-06-11T20:47:44.569Z,94.68
2018-06-11T20:52:40.472Z,97.24
2018-06-11T20:57:36.147Z,98.77
2018-06-11T21:02:31.691Z,99.99
2018-06-11T21:07:27.226Z,99.99
2018-06-11T21:12:23.225Z,99.99
2018-06-11T21:17:21.108Z,99.99
2018-06-11T21:22:16.663Z,99.99
2018-06-11T21:27:12.350Z,99.99
2018-06-11T21:32:08.172Z,99.99
2018-06-11T21:37:03.871Z,99.99
2018-06-11T21:42:00.567Z,99.99
2018-06-11T21:46:56.095Z,99.99
2018-06-11T21:51:51.915Z,99.99
2018-06-11T21:56:47.822Z,99.99
2018-06-11T22:01:43.639Z,99.99
2018-06-11T22:06:39.515Z,99.99
2018-06-11T22:11:35.317Z,99.99
2018-06-11T22:16:32.262Z,99.99
2018-06-11T22:21:28.330Z,99.99
2018-06-11T22:26:24.045Z,99.99
2018-06-11T22:31:20.006Z,99.99
2018-06-11T22:36:15.632Z,99.99
2018-06-11T22:41:12.948Z,99.99
2018-06-11T22:46:08.328Z,99.99
2018-06-11T22:51:04.388Z,99.99
2018-06-11T22:56:00.483Z,99.99
2018-06-11T23:00:56.208Z,99.99
2018-06-11T23:05:52.159Z,99.99
2018-06-11T23:10:48.435Z,99.99
2018-06-11T23:15:44.801Z,99.99
2018-06-11T23:20:40.599Z,99.99
2018-06-11T23:25:38.015Z,99.99
2018-06-11T23:30:33.410Z,99.99
2018-06-11T23:35:29.601Z,99.99
2018-06-11T23:40:25.493Z,99.99
2018-06-11T23:45:21.239Z,99.99
2018-06-11T23:50:18.422Z,99.99
2018-06-11T23:55:14.127Z,99.99
